TNCE/EUX METAR and TAF weather

Enter ICAO airport designator
Station Type Date Time Source
TNCE METAR 2019/04/19 08:55 UTC NOAA

TNCE 190855Z AUTO 08015KT 050V110 //// // ///////// 25/20 Q1016 RE//


Station Type Date Time Source
TNCE Decoded METAR 2019/04/19 08:55 UTC NOAA

Roosevelt Airport Saint Eustatius, Netherlands Antilles (TNCE) 17-29N 062-59W 39M
Apr 19, 2019 - 04:55 AM EDT / 2019.04.19 0855 UTC
Wind: from the E (080 degrees) at 17 MPH (15 KT) (direction variable):0
Temperature: 77 F (25 C)
Dew Point: 68 F (20 C)
Relative Humidity: 73%
Pressure (altimeter): 30.00 in. Hg (1016 hPa)
ob: TNCE 190855Z AUTO 08015KT 050V110 //// // ///////// 25/20 Q1016 RE//
cycle: 9

Station Type Date Time Source
TNCE TAF UTC NOAA

Error!

Example: see airport list